sensor_id;sensor_type;location;lat;lon;timestamp;temperature;humidity
23114;DHT22;11726;50.122;8.832;2023-02-03T00:00:27;8.60;99.90
23114;DHT22;11726;50.122;8.832;2023-02-03T00:02:54;8.60;99.90
23114;DHT22;11726;50.122;8.832;2023-02-03T00:05:21;8.60;99.90
23114;DHT22;11726;50.122;8.832;2023-02-03T00:07:47;8.50;99.90
23114;DHT22;11726;50.122;8.832;2023-02-03T00:10:15;8.50;99.90
23114;DHT22;11726;50.122;8.832;2023-02-03T00:12:48;8.50;99.90
23114;DHT22;11726;50.122;8.832;2023-02-03T00:15:16;8.40;99.90
23114;DHT22;11726;50.122;8.832;2023-02-03T00:17:43;8.40;99.90
23114;DHT22;11726;50.122;8.832;2023-02-03T00:20:10;8.40;99.90
23114;DHT22;11726;50.122;8.832;2023-02-03T00:22:37;8.40;99.90
23114;DHT22;11726;50.122;8.832;2023-02-03T00:25:04;8.40;99.90
23114;DHT22;11726;50.122;8.832;2023-02-03T00:27:31;8.40;99.90
23114;DHT22;11726;50.122;8.832;2023-02-03T00:29:58;8.30;99.90
23114;DHT22;11726;50.122;8.832;2023-02-03T00:32:25;8.30;99.90
23114;DHT22;11726;50.122;8.832;2023-02-03T00:34:52;8.30;99.90
23114;DHT22;11726;50.122;8.832;2023-02-03T00:37:19;8.30;99.90
23114;DHT22;11726;50.122;8.832;2023-02-03T00:39:45;8.30;99.90
23114;DHT22;11726;50.122;8.832;2023-02-03T00:42:12;8.40;99.90
23114;DHT22;11726;50.122;8.832;2023-02-03T00:44:38;8.30;99.90
23114;DHT22;11726;50.122;8.832;2023-02-03T00:47:05;8.40;99.90
23114;DHT22;11726;50.122;8.832;2023-02-03T00:49:32;8.30;99.90
23114;DHT22;11726;50.122;8.832;2023-02-03T00:51:58;8.30;99.90
23114;DHT22;11726;50.122;8.832;2023-02-03T00:54:25;8.30;99.90
23114;DHT22;11726;50.122;8.832;2023-02-03T00:56:52;8.30;99.90
23114;DHT22;11726;50.122;8.832;2023-02-03T00:59:18;8.30;99.90
23114;DHT22;11726;50.122;8.832;2023-02-03T01:01:45;8.20;99.90
23114;DHT22;11726;50.122;8.832;2023-02-03T01:04:12;8.20;99.90
23114;DHT22;11726;50.122;8.832;2023-02-03T01:06:39;8.20;99.90
23114;DHT22;11726;50.122;8.832;2023-02-03T01:09:06;8.10;99.90
23114;DHT22;11726;50.122;8.832;2023-02-03T01:11:33;8.10;99.90
23114;DHT22;11726;50.122;8.832;2023-02-03T01:13:59;8.10;99.90
23114;DHT22;11726;50.122;8.832;2023-02-03T01:16:28;8.10;99.90
23114;DHT22;11726;50.122;8.832;2023-02-03T01:18:56;8.10;99.90
23114;DHT22;11726;50.122;8.832;2023-02-03T01:21:24;8.20;99.90
23114;DHT22;11726;50.122;8.832;2023-02-03T01:23:52;8.20;99.90
23114;DHT22;11726;50.122;8.832;2023-02-03T01:26:20;8.20;99.90
23114;DHT22;11726;50.122;8.832;2023-02-03T01:31:21;8.10;99.90
23114;DHT22;11726;50.122;8.832;2023-02-03T01:33:48;8.20;99.90
23114;DHT22;11726;50.122;8.832;2023-02-03T01:36:15;8.20;99.90
23114;DHT22;11726;50.122;8.832;2023-02-03T01:38:43;8.20;99.90
23114;DHT22;11726;50.122;8.832;2023-02-03T01:41:13;8.20;99.90
23114;DHT22;11726;50.122;8.832;2023-02-03T01:43:42;8.20;99.90
23114;DHT22;11726;50.122;8.832;2023-02-03T01:46:33;8.10;99.90
23114;DHT22;11726;50.122;8.832;2023-02-03T01:49:07;8.20;99.90
23114;DHT22;11726;50.122;8.832;2023-02-03T01:51:37;8.20;99.90
23114;DHT22;11726;50.122;8.832;2023-02-03T01:54:11;8.20;99.90
23114;DHT22;11726;50.122;8.832;2023-02-03T01:56:41;8.10;99.90
23114;DHT22;11726;50.122;8.832;2023-02-03T01:59:09;8.20;99.90
23114;DHT22;11726;50.122;8.832;2023-02-03T02:01:36;8.20;99.90
23114;DHT22;11726;50.122;8.832;2023-02-03T02:04:03;8.20;99.90
23114;DHT22;11726;50.122;8.832;2023-02-03T02:06:31;8.20;99.90
23114;DHT22;11726;50.122;8.832;2023-02-03T02:08:57;8.20;99.90
23114;DHT22;11726;50.122;8.832;2023-02-03T02:11:27;8.20;99.90
23114;DHT22;11726;50.122;8.832;2023-02-03T02:13:57;8.30;99.90
23114;DHT22;11726;50.122;8.832;2023-02-03T02:16:46;8.20;99.90
23114;DHT22;11726;50.122;8.832;2023-02-03T02:27:40;8.40;99.90
23114;DHT22;11726;50.122;8.832;2023-02-03T02:30:38;8.40;99.90
23114;DHT22;11726;50.122;8.832;2023-02-03T02:33:17;8.40;99.90
23114;DHT22;11726;50.122;8.832;2023-02-03T02:41:28;8.30;99.90
23114;DHT22;11726;50.122;8.832;2023-02-03T02:44:07;8.40;99.90
23114;DHT22;11726;50.122;8.832;2023-02-03T02:46:40;8.40;99.90
23114;DHT22;11726;50.122;8.832;2023-02-03T02:49:18;8.40;99.90
23114;DHT22;11726;50.122;8.832;2023-02-03T02:51:48;8.50;99.90
23114;DHT22;11726;50.122;8.832;2023-02-03T02:54:18;8.40;99.90
23114;DHT22;11726;50.122;8.832;2023-02-03T02:56:55;8.40;99.90
23114;DHT22;11726;50.122;8.832;2023-02-03T02:59:23;8.40;99.90
23114;DHT22;11726;50.122;8.832;2023-02-03T03:01:49;8.40;99.90
23114;DHT22;11726;50.122;8.832;2023-02-03T03:04:20;8.40;99.90
23114;DHT22;11726;50.122;8.832;2023-02-03T03:06:59;8.50;99.90
23114;DHT22;11726;50.122;8.832;2023-02-03T03:09:32;8.50;99.90
23114;DHT22;11726;50.122;8.832;2023-02-03T03:12:09;8.40;99.90
23114;DHT22;11726;50.122;8.832;2023-02-03T03:14:41;8.50;99.90
23114;DHT22;11726;50.122;8.832;2023-02-03T03:17:13;8.40;99.90
23114;DHT22;11726;50.122;8.832;2023-02-03T03:19:46;8.40;99.90
23114;DHT22;11726;50.122;8.832;2023-02-03T03:22:15;8.40;99.90
23114;DHT22;11726;50.122;8.832;2023-02-03T03:24:49;8.40;99.90
23114;DHT22;11726;50.122;8.832;2023-02-03T03:27:21;8.40;99.90
23114;DHT22;11726;50.122;8.832;2023-02-03T03:29:59;8.40;99.90
23114;DHT22;11726;50.122;8.832;2023-02-03T03:32:27;8.40;99.90
23114;DHT22;11726;50.122;8.832;2023-02-03T03:34:56;8.40;99.90
23114;DHT22;11726;50.122;8.832;2023-02-03T03:39:57;8.30;99.90
23114;DHT22;11726;50.122;8.832;2023-02-03T03:45:04;8.30;99.90
23114;DHT22;11726;50.122;8.832;2023-02-03T03:47:41;8.30;99.90
23114;DHT22;11726;50.122;8.832;2023-02-03T03:50:13;8.30;99.90
23114;DHT22;11726;50.122;8.832;2023-02-03T03:52:43;8.20;99.90
23114;DHT22;11726;50.122;8.832;2023-02-03T03:55:11;8.40;99.90
23114;DHT22;11726;50.122;8.832;2023-02-03T03:57:48;8.30;99.90
23114;DHT22;11726;50.122;8.832;2023-02-03T04:00:19;8.20;99.90
23114;DHT22;11726;50.122;8.832;2023-02-03T04:02:50;8.30;99.90
23114;DHT22;11726;50.122;8.832;2023-02-03T04:05:18;8.30;99.90
23114;DHT22;11726;50.122;8.832;2023-02-03T04:07:46;8.30;99.90
23114;DHT22;11726;50.122;8.832;2023-02-03T04:12:48;8.40;99.90
23114;DHT22;11726;50.122;8.832;2023-02-03T04:15:15;8.30;99.90
23114;DHT22;11726;50.122;8.832;2023-02-03T04:17:41;8.40;99.90
23114;DHT22;11726;50.122;8.832;2023-02-03T04:20:08;8.40;99.90
23114;DHT22;11726;50.122;8.832;2023-02-03T04:22:35;8.30;99.90
23114;DHT22;11726;50.122;8.832;2023-02-03T04:25:02;8.30;99.90
23114;DHT22;11726;50.122;8.832;2023-02-03T04:27:28;8.30;99.90
23114;DHT22;11726;50.122;8.832;2023-02-03T04:29:55;8.40;99.90
23114;DHT22;11726;50.122;8.832;2023-02-03T04:32:22;8.40;99.90
23114;DHT22;11726;50.122;8.832;2023-02-03T04:34:48;8.40;99.90
23114;DHT22;11726;50.122;8.832;2023-02-03T04:37:15;8.50;99.90
23114;DHT22;11726;50.122;8.832;2023-02-03T04:39:41;8.50;99.90
23114;DHT22;11726;50.122;8.832;2023-02-03T04:42:08;8.60;99.90
23114;DHT22;11726;50.122;8.832;2023-02-03T04:44:34;8.60;99.90
23114;DHT22;11726;50.122;8.832;2023-02-03T04:47:01;8.60;99.90
23114;DHT22;11726;50.122;8.832;2023-02-03T04:49:27;8.50;99.90
23114;DHT22;11726;50.122;8.832;2023-02-03T04:51:54;8.50;99.90
23114;DHT22;11726;50.122;8.832;2023-02-03T04:54:21;8.40;99.90
23114;DHT22;11726;50.122;8.832;2023-02-03T04:56:47;8.30;99.90
23114;DHT22;11726;50.122;8.832;2023-02-03T04:59:14;8.30;99.90
23114;DHT22;11726;50.122;8.832;2023-02-03T05:01:40;8.30;99.90
23114;DHT22;11726;50.122;8.832;2023-02-03T05:04:07;8.20;99.90
23114;DHT22;11726;50.122;8.832;2023-02-03T05:06:34;8.20;99.90
23114;DHT22;11726;50.122;8.832;2023-02-03T05:09:00;8.10;99.90
23114;DHT22;11726;50.122;8.832;2023-02-03T05:11:27;8.10;99.90
23114;DHT22;11726;50.122;8.832;2023-02-03T05:13:54;8.20;99.90
23114;DHT22;11726;50.122;8.832;2023-02-03T05:16:21;8.10;99.90
23114;DHT22;11726;50.122;8.832;2023-02-03T05:18:47;8.00;99.90
23114;DHT22;11726;50.122;8.832;2023-02-03T05:21:14;8.10;99.90
23114;DHT22;11726;50.122;8.832;2023-02-03T05:23:41;8.00;99.90
23114;DHT22;11726;50.122;8.832;2023-02-03T05:26:08;8.00;99.90
23114;DHT22;11726;50.122;8.832;2023-02-03T05:28:35;8.00;99.90
23114;DHT22;11726;50.122;8.832;2023-02-03T05:31:02;8.00;99.90
23114;DHT22;11726;50.122;8.832;2023-02-03T05:33:29;8.00;99.90
23114;DHT22;11726;50.122;8.832;2023-02-03T05:35:55;8.00;99.90
23114;DHT22;11726;50.122;8.832;2023-02-03T05:38:22;8.00;99.90
23114;DHT22;11726;50.122;8.832;2023-02-03T05:40:51;7.90;99.90
23114;DHT22;11726;50.122;8.832;2023-02-03T05:43:37;8.00;99.90
23114;DHT22;11726;50.122;8.832;2023-02-03T05:46:05;8.00;99.90
23114;DHT22;11726;50.122;8.832;2023-02-03T05:48:32;8.00;99.90
23114;DHT22;11726;50.122;8.832;2023-02-03T05:50:59;8.00;99.90
23114;DHT22;11726;50.122;8.832;2023-02-03T05:53:27;8.10;99.90
23114;DHT22;11726;50.122;8.832;2023-02-03T05:55:53;8.10;99.90
23114;DHT22;11726;50.122;8.832;2023-02-03T05:58:20;8.20;99.90
23114;DHT22;11726;50.122;8.832;2023-02-03T06:00:46;8.10;99.90
23114;DHT22;11726;50.122;8.832;2023-02-03T06:03:13;8.10;99.90
23114;DHT22;11726;50.122;8.832;2023-02-03T06:05:40;8.20;99.90
23114;DHT22;11726;50.122;8.832;2023-02-03T06:08:07;8.20;99.90
23114;DHT22;11726;50.122;8.832;2023-02-03T06:10:34;8.20;99.90
23114;DHT22;11726;50.122;8.832;2023-02-03T06:13:12;8.20;99.90
23114;DHT22;11726;50.122;8.832;2023-02-03T06:15:39;8.30;99.90
23114;DHT22;11726;50.122;8.832;2023-02-03T06:18:07;8.20;99.90
23114;DHT22;11726;50.122;8.832;2023-02-03T06:20:34;8.20;99.90
23114;DHT22;11726;50.122;8.832;2023-02-03T06:23:00;8.40;99.90
23114;DHT22;11726;50.122;8.832;2023-02-03T06:25:27;8.30;99.90
23114;DHT22;11726;50.122;8.832;2023-02-03T06:27:53;8.30;99.90
23114;DHT22;11726;50.122;8.832;2023-02-03T06:30:20;8.40;99.90
23114;DHT22;11726;50.122;8.832;2023-02-03T06:32:49;8.40;99.90
23114;DHT22;11726;50.122;8.832;2023-02-03T06:35:16;8.40;99.90
23114;DHT22;11726;50.122;8.832;2023-02-03T06:37:43;8.40;99.90
23114;DHT22;11726;50.122;8.832;2023-02-03T06:40:10;8.40;99.90
23114;DHT22;11726;50.122;8.832;2023-02-03T06:42:37;8.50;99.90
23114;DHT22;11726;50.122;8.832;2023-02-03T06:45:04;8.40;99.90
23114;DHT22;11726;50.122;8.832;2023-02-03T06:47:31;8.50;99.90
23114;DHT22;11726;50.122;8.832;2023-02-03T06:49:58;8.50;99.90
23114;DHT22;11726;50.122;8.832;2023-02-03T06:52:24;8.50;99.90
23114;DHT22;11726;50.122;8.832;2023-02-03T06:54:51;8.40;99.90
23114;DHT22;11726;50.122;8.832;2023-02-03T06:57:17;8.50;99.90
23114;DHT22;11726;50.122;8.832;2023-02-03T06:59:44;8.40;99.90
23114;DHT22;11726;50.122;8.832;2023-02-03T07:02:10;8.40;99.90
23114;DHT22;11726;50.122;8.832;2023-02-03T07:04:37;8.40;99.90
23114;DHT22;11726;50.122;8.832;2023-02-03T07:07:04;8.40;99.90
23114;DHT22;11726;50.122;8.832;2023-02-03T07:09:31;8.40;99.90
23114;DHT22;11726;50.122;8.832;2023-02-03T07:11:57;8.50;99.90
23114;DHT22;11726;50.122;8.832;2023-02-03T07:14:24;8.40;99.90
23114;DHT22;11726;50.122;8.832;2023-02-03T07:16:51;8.50;99.90
23114;DHT22;11726;50.122;8.832;2023-02-03T07:19:17;8.50;99.90
23114;DHT22;11726;50.122;8.832;2023-02-03T07:21:44;8.50;99.90
23114;DHT22;11726;50.122;8.832;2023-02-03T07:24:10;8.50;99.90
23114;DHT22;11726;50.122;8.832;2023-02-03T07:26:37;8.50;99.90
23114;DHT22;11726;50.122;8.832;2023-02-03T07:29:04;8.50;99.90
23114;DHT22;11726;50.122;8.832;2023-02-03T07:31:31;8.50;99.90
23114;DHT22;11726;50.122;8.832;2023-02-03T07:33:58;8.50;99.90
23114;DHT22;11726;50.122;8.832;2023-02-03T07:36:26;8.50;99.90
23114;DHT22;11726;50.122;8.832;2023-02-03T07:38:54;8.60;99.90
23114;DHT22;11726;50.122;8.832;2023-02-03T07:41:20;8.60;99.90
23114;DHT22;11726;50.122;8.832;2023-02-03T07:43:47;8.60;99.90
23114;DHT22;11726;50.122;8.832;2023-02-03T07:46:14;8.60;99.90
23114;DHT22;11726;50.122;8.832;2023-02-03T07:48:40;8.70;99.90
23114;DHT22;11726;50.122;8.832;2023-02-03T07:51:07;8.70;99.90
23114;DHT22;11726;50.122;8.832;2023-02-03T07:53:33;8.80;99.90
23114;DHT22;11726;50.122;8.832;2023-02-03T07:56:04;8.70;99.90
23114;DHT22;11726;50.122;8.832;2023-02-03T07:58:31;8.80;99.90
23114;DHT22;11726;50.122;8.832;2023-02-03T08:00:58;8.80;99.90
23114;DHT22;11726;50.122;8.832;2023-02-03T08:03:25;8.80;99.90
23114;DHT22;11726;50.122;8.832;2023-02-03T08:05:51;8.80;99.90
23114;DHT22;11726;50.122;8.832;2023-02-03T08:08:18;8.80;99.90
23114;DHT22;11726;50.122;8.832;2023-02-03T08:10:45;8.90;99.90
23114;DHT22;11726;50.122;8.832;2023-02-03T08:13:12;8.90;99.90
23114;DHT22;11726;50.122;8.832;2023-02-03T08:15:38;8.90;99.90
23114;DHT22;11726;50.122;8.832;2023-02-03T08:18:05;8.90;99.90
23114;DHT22;11726;50.122;8.832;2023-02-03T08:20:34;8.90;99.90
23114;DHT22;11726;50.122;8.832;2023-02-03T08:23:00;9.00;99.90
23114;DHT22;11726;50.122;8.832;2023-02-03T08:25:27;9.00;99.90
23114;DHT22;11726;50.122;8.832;2023-02-03T08:27:54;9.00;99.90
23114;DHT22;11726;50.122;8.832;2023-02-03T08:30:21;9.00;99.90
23114;DHT22;11726;50.122;8.832;2023-02-03T08:32:48;9.00;99.90
23114;DHT22;11726;50.122;8.832;2023-02-03T08:35:15;9.00;99.90
23114;DHT22;11726;50.122;8.832;2023-02-03T08:37:42;9.00;99.90
23114;DHT22;11726;50.122;8.832;2023-02-03T08:40:09;9.00;99.90
23114;DHT22;11726;50.122;8.832;2023-02-03T08:42:36;9.10;99.90
23114;DHT22;11726;50.122;8.832;2023-02-03T08:45:03;9.00;99.90
23114;DHT22;11726;50.122;8.832;2023-02-03T08:47:30;9.10;99.90
23114;DHT22;11726;50.122;8.832;2023-02-03T08:49:57;9.10;99.90
23114;DHT22;11726;50.122;8.832;2023-02-03T08:52:24;9.10;99.90
23114;DHT22;11726;50.122;8.832;2023-02-03T08:54:50;9.10;99.90
23114;DHT22;11726;50.122;8.832;2023-02-03T08:57:17;9.20;99.90
23114;DHT22;11726;50.122;8.832;2023-02-03T08:59:43;9.30;99.90
23114;DHT22;11726;50.122;8.832;2023-02-03T09:02:14;9.30;99.90
23114;DHT22;11726;50.122;8.832;2023-02-03T09:04:42;9.40;99.90
23114;DHT22;11726;50.122;8.832;2023-02-03T09:07:09;9.30;99.90
23114;DHT22;11726;50.122;8.832;2023-02-03T09:09:36;9.40;99.90
23114;DHT22;11726;50.122;8.832;2023-02-03T09:12:05;9.50;99.90
23114;DHT22;11726;50.122;8.832;2023-02-03T09:14:32;9.50;99.90
23114;DHT22;11726;50.122;8.832;2023-02-03T09:17:00;9.60;99.90
23114;DHT22;11726;50.122;8.832;2023-02-03T09:19:29;9.60;99.90
23114;DHT22;11726;50.122;8.832;2023-02-03T09:21:56;9.60;99.90
23114;DHT22;11726;50.122;8.832;2023-02-03T09:24:23;9.60;99.90
23114;DHT22;11726;50.122;8.832;2023-02-03T09:26:50;9.70;99.90
23114;DHT22;11726;50.122;8.832;2023-02-03T09:29:16;9.70;99.90
23114;DHT22;11726;50.122;8.832;2023-02-03T09:31:43;9.70;99.90
23114;DHT22;11726;50.122;8.832;2023-02-03T09:34:12;9.70;99.90
23114;DHT22;11726;50.122;8.832;2023-02-03T09:36:38;9.70;99.90
23114;DHT22;11726;50.122;8.832;2023-02-03T09:39:08;9.70;99.90
23114;DHT22;11726;50.122;8.832;2023-02-03T09:42:00;9.70;99.90
23114;DHT22;11726;50.122;8.832;2023-02-03T09:47:13;9.80;99.90
23114;DHT22;11726;50.122;8.832;2023-02-03T09:49:47;9.80;99.90
23114;DHT22;11726;50.122;8.832;2023-02-03T09:52:28;9.80;99.90
23114;DHT22;11726;50.122;8.832;2023-02-03T10:00:27;10.00;99.90
23114;DHT22;11726;50.122;8.832;2023-02-03T10:09:35;10.00;99.90
23114;DHT22;11726;50.122;8.832;2023-02-03T10:12:24;10.00;99.90
23114;DHT22;11726;50.122;8.832;2023-02-03T10:17:59;10.10;99.90
23114;DHT22;11726;50.122;8.832;2023-02-03T10:20:37;10.00;99.90
23114;DHT22;11726;50.122;8.832;2023-02-03T10:23:32;10.00;99.90
23114;DHT22;11726;50.122;8.832;2023-02-03T10:26:04;10.10;99.90
23114;DHT22;11726;50.122;8.832;2023-02-03T10:28:36;10.10;99.90
23114;DHT22;11726;50.122;8.832;2023-02-03T10:31:19;10.10;99.90
23114;DHT22;11726;50.122;8.832;2023-02-03T10:33:47;10.10;99.90
23114;DHT22;11726;50.122;8.832;2023-02-03T10:36:26;10.10;99.90
23114;DHT22;11726;50.122;8.832;2023-02-03T10:41:34;10.10;99.90
23114;DHT22;11726;50.122;8.832;2023-02-03T10:44:04;10.10;99.90
23114;DHT22;11726;50.122;8.832;2023-02-03T10:46:34;10.10;99.90
23114;DHT22;11726;50.122;8.832;2023-02-03T10:49:01;10.10;99.90
23114;DHT22;11726;50.122;8.832;2023-02-03T10:51:36;10.10;99.90
23114;DHT22;11726;50.122;8.832;2023-02-03T10:54:26;10.10;99.90
23114;DHT22;11726;50.122;8.832;2023-02-03T10:57:00;10.10;99.90
23114;DHT22;11726;50.122;8.832;2023-02-03T10:59:30;10.10;99.90
23114;DHT22;11726;50.122;8.832;2023-02-03T11:01:58;10.10;99.90
23114;DHT22;11726;50.122;8.832;2023-02-03T11:06:58;10.20;99.90
23114;DHT22;11726;50.122;8.832;2023-02-03T11:09:36;10.30;99.90
23114;DHT22;11726;50.122;8.832;2023-02-03T11:14:48;10.40;99.90
23114;DHT22;11726;50.122;8.832;2023-02-03T11:17:23;10.50;99.90
23114;DHT22;11726;50.122;8.832;2023-02-03T11:19:54;10.40;99.90
23114;DHT22;11726;50.122;8.832;2023-02-03T11:22:38;10.40;99.90
23114;DHT22;11726;50.122;8.832;2023-02-03T11:25:17;10.50;99.90
23114;DHT22;11726;50.122;8.832;2023-02-03T11:27:44;10.50;99.90
23114;DHT22;11726;50.122;8.832;2023-02-03T11:30:21;10.40;99.90
23114;DHT22;11726;50.122;8.832;2023-02-03T11:32:49;10.30;99.90
23114;DHT22;11726;50.122;8.832;2023-02-03T11:35:20;10.30;99.90
23114;DHT22;11726;50.122;8.832;2023-02-03T11:37:52;10.30;99.90
23114;DHT22;11726;50.122;8.832;2023-02-03T11:40:28;10.20;99.90
23114;DHT22;11726;50.122;8.832;2023-02-03T11:45:35;10.40;99.90
23114;DHT22;11726;50.122;8.832;2023-02-03T11:48:38;10.50;99.90
23114;DHT22;11726;50.122;8.832;2023-02-03T12:08:16;10.30;99.90
23114;DHT22;11726;50.122;8.832;2023-02-03T12:13:38;10.30;99.90
23114;DHT22;11726;50.122;8.832;2023-02-03T12:16:14;10.30;99.90
23114;DHT22;11726;50.122;8.832;2023-02-03T12:21:43;10.20;99.90
23114;DHT22;11726;50.122;8.832;2023-02-03T12:27:09;10.40;99.90
23114;DHT22;11726;50.122;8.832;2023-02-03T12:29:45;10.30;99.90
23114;DHT22;11726;50.122;8.832;2023-02-03T12:32:35;10.30;99.90
23114;DHT22;11726;50.122;8.832;2023-02-03T12:35:32;10.30;99.90
23114;DHT22;11726;50.122;8.832;2023-02-03T12:40:39;10.10;99.90
23114;DHT22;11726;50.122;8.832;2023-02-03T12:43:29;9.90;99.90
23114;DHT22;11726;50.122;8.832;2023-02-03T12:46:00;9.90;99.90
23114;DHT22;11726;50.122;8.832;2023-02-03T12:48:47;9.80;99.90
23114;DHT22;11726;50.122;8.832;2023-02-03T12:51:36;9.70;99.90
23114;DHT22;11726;50.122;8.832;2023-02-03T12:54:31;9.60;99.90
23114;DHT22;11726;50.122;8.832;2023-02-03T13:03:06;9.40;99.90
23114;DHT22;11726;50.122;8.832;2023-02-03T13:11:34;8.90;99.90
23114;DHT22;11726;50.122;8.832;2023-02-03T13:16:59;8.90;99.90
23114;DHT22;11726;50.122;8.832;2023-02-03T13:19:47;8.80;99.90
23114;DHT22;11726;50.122;8.832;2023-02-03T13:22:15;8.70;99.90
23114;DHT22;11726;50.122;8.832;2023-02-03T13:27:58;8.70;99.90
23114;DHT22;11726;50.122;8.832;2023-02-03T13:30:45;8.70;99.90
23114;DHT22;11726;50.122;8.832;2023-02-03T13:39:24;8.70;99.90
23114;DHT22;11726;50.122;8.832;2023-02-03T13:42:07;8.70;99.90
23114;DHT22;11726;50.122;8.832;2023-02-03T13:44:36;8.70;99.90
23114;DHT22;11726;50.122;8.832;2023-02-03T13:47:05;8.70;99.90
23114;DHT22;11726;50.122;8.832;2023-02-03T13:49:33;8.70;99.90
23114;DHT22;11726;50.122;8.832;2023-02-03T13:52:01;8.70;99.90
23114;DHT22;11726;50.122;8.832;2023-02-03T13:54:34;8.70;99.90
23114;DHT22;11726;50.122;8.832;2023-02-03T13:57:05;8.80;99.90
23114;DHT22;11726;50.122;8.832;2023-02-03T13:59:44;8.70;99.90
23114;DHT22;11726;50.122;8.832;2023-02-03T14:04:55;8.70;99.90
23114;DHT22;11726;50.122;8.832;2023-02-03T14:07:31;8.70;99.90
23114;DHT22;11726;50.122;8.832;2023-02-03T14:12:57;8.80;99.90
23114;DHT22;11726;50.122;8.832;2023-02-03T14:25:25;8.70;99.90
23114;DHT22;11726;50.122;8.832;2023-02-03T14:27:59;8.60;99.90
23114;DHT22;11726;50.122;8.832;2023-02-03T14:30:28;8.60;99.90
23114;DHT22;11726;50.122;8.832;2023-02-03T14:32:57;8.60;99.90
23114;DHT22;11726;50.122;8.832;2023-02-03T14:35:32;8.70;99.90
23114;DHT22;11726;50.122;8.832;2023-02-03T14:38:10;8.70;99.90
23114;DHT22;11726;50.122;8.832;2023-02-03T14:43:24;8.60;99.90
23114;DHT22;11726;50.122;8.832;2023-02-03T14:48:54;8.70;99.90
23114;DHT22;11726;50.122;8.832;2023-02-03T14:51:35;8.70;99.90
23114;DHT22;11726;50.122;8.832;2023-02-03T14:54:20;8.60;99.90
23114;DHT22;11726;50.122;8.832;2023-02-03T15:02:33;8.80;99.90
23114;DHT22;11726;50.122;8.832;2023-02-03T15:07:53;8.80;99.90
23114;DHT22;11726;50.122;8.832;2023-02-03T15:10:20;8.90;99.90
23114;DHT22;11726;50.122;8.832;2023-02-03T15:12:50;8.80;99.90
23114;DHT22;11726;50.122;8.832;2023-02-03T15:15:28;8.90;99.90
23114;DHT22;11726;50.122;8.832;2023-02-03T15:17:57;8.90;99.90
23114;DHT22;11726;50.122;8.832;2023-02-03T15:20:36;8.90;99.90
23114;DHT22;11726;50.122;8.832;2023-02-03T15:23:22;8.90;99.90
23114;DHT22;11726;50.122;8.832;2023-02-03T15:25:56;8.90;99.90
23114;DHT22;11726;50.122;8.832;2023-02-03T15:28:24;9.00;99.90
23114;DHT22;11726;50.122;8.832;2023-02-03T15:31:18;9.00;99.90
23114;DHT22;11726;50.122;8.832;2023-02-03T15:33:49;9.10;99.90
23114;DHT22;11726;50.122;8.832;2023-02-03T15:36:25;9.10;99.90
23114;DHT22;11726;50.122;8.832;2023-02-03T15:39:11;9.10;99.90
23114;DHT22;11726;50.122;8.832;2023-02-03T15:41:39;9.10;99.90
23114;DHT22;11726;50.122;8.832;2023-02-03T15:44:16;9.10;99.90
23114;DHT22;11726;50.122;8.832;2023-02-03T15:46:50;9.10;99.90
23114;DHT22;11726;50.122;8.832;2023-02-03T15:49:28;9.00;99.90
23114;DHT22;11726;50.122;8.832;2023-02-03T15:52:12;9.10;99.90
23114;DHT22;11726;50.122;8.832;2023-02-03T15:54:43;9.00;99.90
23114;DHT22;11726;50.122;8.832;2023-02-03T15:57:15;9.00;99.90
23114;DHT22;11726;50.122;8.832;2023-02-03T15:59:49;9.00;99.90
23114;DHT22;11726;50.122;8.832;2023-02-03T16:02:21;9.10;99.90
23114;DHT22;11726;50.122;8.832;2023-02-03T16:04:49;9.10;99.90
23114;DHT22;11726;50.122;8.832;2023-02-03T16:07:27;9.00;99.90
23114;DHT22;11726;50.122;8.832;2023-02-03T16:09:56;9.10;99.90
23114;DHT22;11726;50.122;8.832;2023-02-03T16:12:31;9.10;99.90
23114;DHT22;11726;50.122;8.832;2023-02-03T16:14:59;9.00;99.90
23114;DHT22;11726;50.122;8.832;2023-02-03T16:17:35;9.10;99.90
23114;DHT22;11726;50.122;8.832;2023-02-03T16:22:42;9.10;99.90
23114;DHT22;11726;50.122;8.832;2023-02-03T16:25:21;9.10;99.90
23114;DHT22;11726;50.122;8.832;2023-02-03T16:30:55;9.20;99.90
23114;DHT22;11726;50.122;8.832;2023-02-03T16:33:46;9.10;99.90
23114;DHT22;11726;50.122;8.832;2023-02-03T16:36:31;9.10;99.90
23114;DHT22;11726;50.122;8.832;2023-02-03T16:39:17;9.20;99.90
23114;DHT22;11726;50.122;8.832;2023-02-03T16:42:12;9.20;99.90
23114;DHT22;11726;50.122;8.832;2023-02-03T16:44:58;9.10;99.90
23114;DHT22;11726;50.122;8.832;2023-02-03T16:47:45;9.10;99.90
23114;DHT22;11726;50.122;8.832;2023-02-03T16:50:31;9.20;99.90
23114;DHT22;11726;50.122;8.832;2023-02-03T16:53:23;9.20;99.90
23114;DHT22;11726;50.122;8.832;2023-02-03T16:55:52;9.30;99.90
23114;DHT22;11726;50.122;8.832;2023-02-03T16:58:19;9.20;99.90
23114;DHT22;11726;50.122;8.832;2023-02-03T17:00:48;9.20;99.90
23114;DHT22;11726;50.122;8.832;2023-02-03T17:03:18;9.30;99.90
23114;DHT22;11726;50.122;8.832;2023-02-03T17:05:46;9.40;99.90
23114;DHT22;11726;50.122;8.832;2023-02-03T17:08:14;9.30;99.90
23114;DHT22;11726;50.122;8.832;2023-02-03T17:10:43;9.40;99.90
23114;DHT22;11726;50.122;8.832;2023-02-03T17:13:10;9.40;99.90
23114;DHT22;11726;50.122;8.832;2023-02-03T17:15:46;9.40;99.90
23114;DHT22;11726;50.122;8.832;2023-02-03T17:18:13;9.40;99.90
23114;DHT22;11726;50.122;8.832;2023-02-03T17:20:43;9.30;99.90
23114;DHT22;11726;50.122;8.832;2023-02-03T17:23:11;9.30;99.90
23114;DHT22;11726;50.122;8.832;2023-02-03T17:25:39;9.40;99.90
23114;DHT22;11726;50.122;8.832;2023-02-03T17:28:07;9.40;99.90
23114;DHT22;11726;50.122;8.832;2023-02-03T17:30:34;9.30;99.90
23114;DHT22;11726;50.122;8.832;2023-02-03T17:33:03;9.40;99.90
23114;DHT22;11726;50.122;8.832;2023-02-03T17:35:34;9.40;99.90
23114;DHT22;11726;50.122;8.832;2023-02-03T17:38:01;9.40;99.90
23114;DHT22;11726;50.122;8.832;2023-02-03T17:40:28;9.40;99.90
23114;DHT22;11726;50.122;8.832;2023-02-03T17:43:12;9.50;99.90
23114;DHT22;11726;50.122;8.832;2023-02-03T17:45:57;9.50;99.90
23114;DHT22;11726;50.122;8.832;2023-02-03T17:48:42;9.50;99.90
23114;DHT22;11726;50.122;8.832;2023-02-03T17:51:26;9.50;99.90
23114;DHT22;11726;50.122;8.832;2023-02-03T17:54:12;9.50;99.90
23114;DHT22;11726;50.122;8.832;2023-02-03T17:56:39;9.40;99.90
23114;DHT22;11726;50.122;8.832;2023-02-03T17:59:05;9.40;99.90
23114;DHT22;11726;50.122;8.832;2023-02-03T18:01:32;9.30;99.90
23114;DHT22;11726;50.122;8.832;2023-02-03T18:04:03;9.30;99.90
23114;DHT22;11726;50.122;8.832;2023-02-03T18:06:31;9.30;99.90
23114;DHT22;11726;50.122;8.832;2023-02-03T18:09:04;9.40;99.90
23114;DHT22;11726;50.122;8.832;2023-02-03T18:11:33;9.50;99.90
23114;DHT22;11726;50.122;8.832;2023-02-03T18:14:00;9.50;99.90
23114;DHT22;11726;50.122;8.832;2023-02-03T18:16:29;9.50;99.90
23114;DHT22;11726;50.122;8.832;2023-02-03T18:18:59;9.40;99.90
23114;DHT22;11726;50.122;8.832;2023-02-03T18:21:26;9.50;99.90
23114;DHT22;11726;50.122;8.832;2023-02-03T18:23:53;9.50;99.90
23114;DHT22;11726;50.122;8.832;2023-02-03T18:26:25;9.60;99.90
23114;DHT22;11726;50.122;8.832;2023-02-03T18:28:54;9.60;99.90